Time;durP1;ratioP1;P1;durP2;ratioP2;P2;SDS_P1;SDS_P2;PMS_P1;PMS_P2;Temp;Humidity;BMP_temperature;BMP_pressure;BME280_temperature;BME280_humidity;BME280_pressure;Samples;Min_cycle;Max_cycle;Signal;HPM_P1;HPM_P2
2023/12/28 00:02:51;;;;;;;4.45;1.20;;;;;;;8.78;100.00;100479.75;6283856;28;20049;-70
2023/12/28 00:05:52;;;;;;;2.38;1.00;;;;;;;8.86;100.00;100491.56;6299822;28;20074;-70
2023/12/28 00:08:53;;;;;;;2.78;0.90;;;;;;;8.86;100.00;100493.34;6284684;28;20056;-70
2023/12/28 00:11:56;;;;;;;1.45;0.82;;;;;;;8.97;100.00;100498.03;6299809;28;20348;-70
2023/12/28 00:14:57;;;;;;;2.58;0.80;;;;;;;9.06;100.00;100497.56;6299327;28;20045;-70
2023/12/28 00:17:59;;;;;;;4.43;0.90;;;;;;;9.08;100.00;100509.66;6300253;28;20044;-70
2023/12/28 00:21:00;;;;;;;2.22;1.08;;;;;;;9.03;100.00;100498.53;6300790;28;20063;-70
2023/12/28 00:24:02;;;;;;;1.52;0.80;;;;;;;8.95;100.00;100505.09;6299495;28;20044;-70
2023/12/28 00:27:05;;;;;;;3.08;0.75;;;;;;;8.77;100.00;100497.25;6287309;28;20064;-71
2023/12/28 00:30:07;;;;;;;1.40;1.00;;;;;;;8.60;100.00;100502.47;6299783;28;20052;-70
2023/12/28 00:33:08;;;;;;;1.75;1.00;;;;;;;8.45;100.00;100513.69;6299517;28;20071;-70
2023/12/28 00:36:10;;;;;;;2.33;0.88;;;;;;;8.39;100.00;100514.81;6299462;28;20051;-72
2023/12/28 00:39:11;;;;;;;3.30;1.27;;;;;;;8.38;100.00;100521.84;6289958;28;20189;-70
2023/12/28 00:42:14;;;;;;;1.85;1.05;;;;;;;8.23;100.00;100509.47;6282557;28;20044;-70
2023/12/28 00:45:15;;;;;;;3.47;1.48;;;;;;;8.29;100.00;100524.03;6287068;28;20045;-70
2023/12/28 00:48:16;;;;;;;3.50;1.00;;;;;;;8.30;100.00;100528.31;6286812;28;20044;-70
2023/12/28 00:51:18;;;;;;;3.83;1.20;;;;;;;8.26;100.00;100519.75;6299682;28;20052;-70
2023/12/28 00:54:20;;;;;;;2.65;1.30;;;;;;;8.25;100.00;100512.84;6299170;28;20049;-70
2023/12/28 00:57:22;;;;;;;2.05;1.08;;;;;;;8.24;100.00;100520.78;6287326;28;20056;-69
2023/12/28 01:00:24;;;;;;;2.05;0.98;;;;;;;8.23;100.00;100517.31;6299478;28;20325;-69
2023/12/28 01:03:25;;;;;;;5.97;1.00;;;;;;;8.22;100.00;100514.75;6299274;28;20053;-70
2023/12/28 01:06:28;;;;;;;3.15;1.10;;;;;;;8.25;100.00;100507.59;6310012;22;20062;-72
2023/12/28 01:09:29;;;;;;;3.70;1.08;;;;;;;8.19;100.00;100507.91;6287559;28;20045;-73
2023/12/28 01:12:32;;;;;;;2.25;0.90;;;;;;;8.21;100.00;100505.19;6295245;28;20479;-72
2023/12/28 01:15:34;;;;;;;5.25;1.70;;;;;;;8.17;100.00;100537.69;6279678;28;20360;-72
2023/12/28 01:18:35;;;;;;;2.85;0.93;;;;;;;8.21;100.00;100505.19;6270203;28;20049;-73
2023/12/28 01:21:36;;;;;;;6.22;1.08;;;;;;;8.24;100.00;100500.69;6272027;28;20444;-73
2023/12/28 01:24:37;;;;;;;3.42;1.35;;;;;;;8.22;100.00;100522.59;6274495;28;20049;-72
2023/12/28 01:27:40;;;;;;;5.70;1.85;;;;;;;8.21;100.00;100528.75;6278417;28;20353;-72
2023/12/28 01:30:43;;;;;;;2.40;1.10;;;;;;;8.27;100.00;100536.34;6279350;28;20056;-71
2023/12/28 01:33:45;;;;;;;1.40;0.95;;;;;;;8.30;100.00;100517.84;6278781;28;20051;-72
2023/12/28 01:36:46;;;;;;;2.20;1.20;;;;;;;8.29;100.00;100529.25;6273952;28;20338;-72
2023/12/28 01:39:47;;;;;;;2.63;1.23;;;;;;;8.32;100.00;100537.81;6278798;28;20055;-71
2023/12/28 01:42:50;;;;;;;3.50;1.70;;;;;;;8.36;100.00;100528.06;6278548;28;20049;-70
2023/12/28 01:45:51;;;;;;;1.20;1.10;;;;;;;8.43;100.00;100541.72;6277762;28;20068;-72
2023/12/28 01:48:53;;;;;;;3.58;1.20;;;;;;;8.44;100.00;100544.25;6278607;28;20049;-71
2023/12/28 01:51:55;;;;;;;1.33;1.08;;;;;;;8.42;100.00;100548.72;6278598;28;20432;-72
2023/12/28 01:54:57;;;;;;;3.67;1.50;;;;;;;8.48;100.00;100544.97;6277716;28;20132;-71
2023/12/28 01:57:59;;;;;;;2.17;1.17;;;;;;;8.46;100.00;100547.66;6278128;28;20057;-72
2023/12/28 02:01:01;;;;;;;2.47;1.33;;;;;;;8.44;100.00;100566.97;6271582;28;20057;-71
2023/12/28 02:04:03;;;;;;;4.78;1.50;;;;;;;8.43;100.00;100573.16;6276677;28;20053;-73
2023/12/28 02:07:06;;;;;;;1.77;1.13;;;;;;;8.34;100.00;100575.22;6277065;28;20045;-73
2023/12/28 02:10:08;;;;;;;3.65;1.60;;;;;;;8.36;100.00;100588.28;6278230;28;20060;-72
2023/12/28 02:13:11;;;;;;;2.10;1.60;;;;;;;8.33;100.00;100589.25;6277587;28;20045;-72
2023/12/28 02:16:16;;;;;;;2.55;1.40;;;;;;;8.33;100.00;100598.88;6277225;28;20052;-73
2023/12/28 02:19:26;;;;;;;1.67;1.20;;;;;;;8.39;100.00;100601.22;6277934;28;20055;-73
2023/12/28 02:22:27;;;;;;;;;;;;;;;8.39;100.00;100593.38;6277903;28;20351;-72
2023/12/28 02:25:30;;;;;;;1.67;1.30;;;;;;;8.39;100.00;100611.72;6277306;28;19924;-73
2023/12/28 02:28:31;;;;;;;2.53;1.50;;;;;;;8.37;100.00;100596.09;6277443;28;20056;-72
2023/12/28 02:31:38;;;;;;;3.92;1.58;;;;;;;8.30;100.00;100597.25;6277453;28;20052;-73
2023/12/28 02:34:43;;;;;;;4.78;1.88;;;;;;;8.44;100.00;100591.41;6265306;28;20057;-73
2023/12/28 02:37:47;;;;;;;2.42;1.50;;;;;;;8.46;100.00;100589.56;6252439;28;20049;-72
2023/12/28 02:40:51;;;;;;;3.83;1.60;;;;;;;8.49;100.00;100599.03;6252801;28;20072;-72
2023/12/28 02:43:52;;;;;;;3.72;1.88;;;;;;;8.50;100.00;100591.13;6252275;28;20056;-73
2023/12/28 02:46:54;;;;;;;5.45;1.67;;;;;;;8.53;100.00;100590.97;6251881;28;20430;-73
2023/12/28 02:49:55;;;;;;;8.05;1.90;;;;;;;8.57;100.00;100591.66;6252476;28;20056;-71
2023/12/28 02:52:57;;;;;;;4.70;1.70;;;;;;;8.59;100.00;100576.75;6252022;28;20434;-73
2023/12/28 02:55:59;;;;;;;3.70;2.17;;;;;;;8.54;100.00;100584.81;6251839;28;20041;-73
2023/12/28 02:59:01;;;;;;;3.42;2.00;;;;;;;8.63;100.00;100579.16;6251938;28;20049;-73
2023/12/28 03:02:02;;;;;;;4.80;2.08;;;;;;;8.67;100.00;100581.59;6251941;28;20056;-73
2023/12/28 03:05:05;;;;;;;4.35;1.80;;;;;;;8.69;100.00;100583.22;6251432;28;20191;-73
2023/12/28 03:08:07;;;;;;;3.17;1.90;;;;;;;8.80;100.00;100590.56;6251504;28;20045;-72
2023/12/28 03:11:09;;;;;;;4.53;2.22;;;;;;;8.75;100.00;100593.41;6251978;28;20057;-72
2023/12/28 03:14:10;;;;;;;3.65;1.75;;;;;;;8.86;100.00;100577.19;6251208;28;20042;-72
2023/12/28 03:17:12;;;;;;;4.53;2.10;;;;;;;8.85;100.00;100578.09;6251877;28;20465;-73
2023/12/28 03:20:14;;;;;;;4.38;2.13;;;;;;;8.78;100.00;100592.41;6251599;28;20046;-72
2023/12/28 03:23:15;;;;;;;3.42;1.83;;;;;;;8.87;100.00;100584.97;6246200;28;20068;-72
2023/12/28 03:26:18;;;;;;;3.15;2.17;;;;;;;8.87;100.00;100582.34;6239575;28;20048;-72
2023/12/28 03:29:21;;;;;;;3.53;2.17;;;;;;;8.81;100.00;100593.13;6237640;28;20055;-71
2023/12/28 03:32:22;;;;;;;2.58;1.67;;;;;;;8.83;100.00;100587.81;6237190;28;20049;-71
2023/12/28 03:35:23;;;;;;;3.40;2.00;;;;;;;8.83;100.00;100580.78;6237038;28;20272;-71
2023/12/28 03:38:25;;;;;;;3.63;2.08;;;;;;;8.87;100.00;100591.97;6238957;28;20046;-72
2023/12/28 03:41:27;;;;;;;2.88;2.25;;;;;;;8.84;100.00;100581.63;6240480;28;20442;-72
2023/12/28 03:44:29;;;;;;;4.13;2.00;;;;;;;8.80;100.00;100586.16;6247804;28;20072;-72
2023/12/28 03:47:30;;;;;;;5.63;2.40;;;;;;;8.92;100.00;100589.13;6251249;28;20063;-72
2023/12/28 03:50:31;;;;;;;3.30;2.15;;;;;;;8.77;100.00;100572.41;6238783;28;20401;-73
2023/12/28 03:53:33;;;;;;;2.85;1.85;;;;;;;8.80;100.00;100590.56;6239159;28;20046;-72
2023/12/28 03:56:39;;;;;;;4.05;2.25;;;;;;;8.80;100.00;100591.41;6237058;28;20045;-71
2023/12/28 03:59:40;;;;;;;4.72;2.05;;;;;;;8.75;100.00;100577.69;6241031;28;20123;-72
2023/12/28 04:02:42;;;;;;;3.15;1.52;;;;;;;8.73;100.00;100560.38;6238845;28;20045;-71
2023/12/28 04:05:44;;;;;;;3.95;2.15;;;;;;;8.87;100.00;100565.78;6235669;28;20057;-72
2023/12/28 04:08:45;;;;;;;4.20;2.03;;;;;;;8.85;100.00;100572.84;6238768;28;20049;-71
2023/12/28 04:11:48;;;;;;;3.63;1.95;;;;;;;8.86;100.00;100585.03;6236664;28;20045;-73
2023/12/28 04:14:49;;;;;;;4.10;1.90;;;;;;;8.83;100.00;100569.47;6237309;28;20049;-72
2023/12/28 04:17:51;;;;;;;6.30;2.38;;;;;;;8.93;100.00;100575.94;6236511;28;20050;-72
2023/12/28 04:20:52;;;;;;;3.20;1.65;;;;;;;8.96;100.00;100582.81;6248827;28;20049;-72
2023/12/28 04:23:53;;;;;;;3.42;2.05;;;;;;;8.98;100.00;100563.47;6252546;28;20046;-72
2023/12/28 04:26:56;;;;;;;3.53;1.77;;;;;;;8.88;100.00;100576.16;6261240;28;20052;-72
2023/12/28 04:29:57;;;;;;;2.97;1.50;;;;;;;8.89;100.00;100577.00;6268568;28;20056;-71
2023/12/28 04:32:59;;;;;;;3.90;1.80;;;;;;;8.91;100.00;100579.59;6266334;28;20049;-72
2023/12/28 04:36:03;;;;;;;7.82;1.48;;;;;;;8.85;100.00;100568.44;6269988;28;20124;-73
2023/12/28 04:39:04;;;;;;;3.38;1.83;;;;;;;8.93;100.00;100570.69;6263614;28;20059;-72
2023/12/28 04:42:07;;;;;;;6.47;1.85;;;;;;;8.84;100.00;100564.13;6270870;28;20049;-72
2023/12/28 04:45:09;;;;;;;2.50;1.50;;;;;;;8.99;100.00;100572.16;6264870;28;20045;-73
2023/12/28 04:48:11;;;;;;;3.53;1.83;;;;;;;9.00;100.00;100566.88;6238936;28;20050;-73
2023/12/28 04:51:12;;;;;;;4.63;1.70;;;;;;;8.99;100.00;100561.69;6265379;28;20053;-72
2023/12/28 04:54:13;;;;;;;3.63;1.70;;;;;;;8.94;100.00;100579.41;6274484;28;20045;-72
2023/12/28 04:57:16;;;;;;;3.40;1.40;;;;;;;8.97;100.00;100585.34;6274702;28;20053;-73
2023/12/28 05:00:18;;;;;;;4.07;1.77;;;;;;;9.02;100.00;100572.03;6275036;28;20060;-73
2023/12/28 05:03:19;;;;;;;4.13;1.95;;;;;;;8.98;100.00;100567.84;6274009;28;20364;-73
2023/12/28 05:06:20;;;;;;;2.00;1.40;;;;;;;9.01;100.00;100571.19;6278649;28;20049;-73
2023/12/28 05:09:22;;;;;;;3.17;1.75;;;;;;;8.97;100.00;100574.88;6279540;28;20056;-75
2023/12/28 05:12:24;;;;;;;3.03;1.80;;;;;;;8.95;100.00;100579.34;6274637;28;20049;-73
2023/12/28 05:15:26;;;;;;;5.15;1.98;;;;;;;8.89;100.00;100580.47;6240764;28;20049;-72
2023/12/28 05:18:27;;;;;;;3.78;1.30;;;;;;;8.87;100.00;100595.44;6241862;28;20050;-72
2023/12/28 05:21:28;;;;;;;5.15;1.70;;;;;;;8.89;100.00;100585.72;6241663;28;20049;-73
2023/12/28 05:24:30;;;;;;;3.85;1.80;;;;;;;8.97;100.00;100598.47;6240588;28;20052;-73
2023/12/28 05:27:32;;;;;;;3.20;1.70;;;;;;;8.95;100.00;100597.69;6246311;28;20400;-73
2023/12/28 05:30:33;;;;;;;2.70;1.60;;;;;;;9.00;100.00;100606.19;6243103;28;20045;-72
2023/12/28 05:33:35;;;;;;;4.60;1.52;;;;;;;9.06;100.00;100607.66;6242119;28;20053;-72
2023/12/28 05:36:36;;;;;;;2.05;1.50;;;;;;;9.18;100.00;100607.06;6229080;28;20073;-71
2023/12/28 05:39:37;;;;;;;3.45;1.67;;;;;;;9.19;100.00;100616.59;6229171;28;20439;-72
2023/12/28 05:42:40;;;;;;;1.45;1.10;;;;;;;9.19;100.00;100613.97;6229190;28;20053;-71
2023/12/28 05:45:42;;;;;;;2.80;1.27;;;;;;;9.18;100.00;100611.44;6228642;28;20431;-72
2023/12/28 05:48:43;;;;;;;3.90;1.52;;;;;;;9.34;100.00;100622.84;6229219;28;20336;-73
2023/12/28 05:51:44;;;;;;;4.25;1.40;;;;;;;9.35;100.00;100614.03;6228803;28;20053;-72
2023/12/28 05:54:47;;;;;;;2.40;1.45;;;;;;;9.33;100.00;100608.88;6228259;28;20386;-74
2023/12/28 05:57:50;;;;;;;3.28;1.50;;;;;;;9.16;100.00;100595.78;6228900;28;20145;-74
2023/12/28 06:00:52;;;;;;;2.63;1.23;;;;;;;9.20;100.00;100594.69;6229151;28;20050;-74
2023/12/28 06:03:53;;;;;;;3.10;1.52;;;;;;;9.18;100.00;100604.44;6228599;28;20455;-73
2023/12/28 06:06:54;;;;;;;4.05;1.70;;;;;;;9.18;100.00;100603.59;6228791;28;20057;-74
2023/12/28 06:09:56;;;;;;;8.68;2.20;;;;;;;9.26;100.00;100604.88;6277644;28;20464;-74
2023/12/28 06:12:58;;;;;;;11.25;1.80;;;;;;;9.25;100.00;100613.66;6277525;28;20048;-73
2023/12/28 06:15:59;;;;;;;3.72;1.30;;;;;;;9.33;100.00;100600.19;6277414;28;20438;-75
2023/12/28 06:19:01;;;;;;;4.07;1.52;;;;;;;9.30;100.00;100623.94;6277786;28;20049;-74
2023/12/28 06:22:02;;;;;;;6.22;1.73;;;;;;;9.31;100.00;100625.63;6277469;28;20449;-73
2023/12/28 06:25:04;;;;;;;3.42;1.33;;;;;;;9.32;100.00;100622.09;6277375;28;20136;-72
2023/12/28 06:28:07;;;;;;;2.08;1.50;;;;;;;9.26;100.00;100625.00;6277817;28;20049;-72
2023/12/28 06:31:09;;;;;;;2.97;1.45;;;;;;;9.33;100.00;100618.53;6277500;28;20049;-73
2023/12/28 06:34:10;;;;;;;2.55;1.25;;;;;;;9.40;100.00;100626.03;6273385;28;20346;-72
2023/12/28 06:37:11;;;;;;;3.30;1.55;;;;;;;9.33;100.00;100613.28;6268196;28;20045;-74
2023/12/28 06:40:13;;;;;;;3.92;1.20;;;;;;;9.35;100.00;100611.44;6277483;28;20056;-74
2023/12/28 06:43:16;;;;;;;2.83;1.45;;;;;;;9.39;100.00;100619.06;6277250;28;20053;-74
2023/12/28 06:46:17;;;;;;;5.72;1.50;;;;;;;9.48;100.00;100625.63;6271851;28;20127;-74
2023/12/28 06:49:19;;;;;;;4.65;1.63;;;;;;;9.52;100.00;100615.81;6277172;28;20059;-74
2023/12/28 06:52:20;;;;;;;3.10;1.13;;;;;;;9.42;100.00;100630.34;6276650;28;20432;-74
2023/12/28 06:55:21;;;;;;;4.63;1.30;;;;;;;9.46;100.00;100630.09;6276569;28;20049;-74
2023/12/28 06:58:24;;;;;;;3.65;1.58;;;;;;;9.51;100.00;100635.97;6276752;28;20353;-74
2023/12/28 07:01:25;;;;;;;4.38;1.20;;;;;;;9.56;100.00;100630.47;6272572;28;20441;-74
2023/12/28 07:04:29;;;;;;;2.45;1.30;;;;;;;9.58;100.00;100629.50;6262135;28;20052;-74
2023/12/28 07:07:30;;;;;;;7.32;1.80;;;;;;;9.59;100.00;100640.84;6316501;22;20044;-71
2023/12/28 07:10:31;;;;;;;8.38;1.65;;;;;;;9.69;100.00;100641.22;6307110;28;20444;-70
2023/12/28 07:13:34;;;;;;;7.60;1.35;;;;;;;9.75;100.00;100635.63;6299690;28;20051;-70
2023/12/28 07:16:35;;;;;;;3.05;1.35;;;;;;;9.62;100.00;100636.25;6276012;28;20080;-70
2023/12/28 07:19:37;;;;;;;7.03;1.35;;;;;;;9.62;100.00;100635.41;6276375;28;20045;-72
2023/12/28 07:22:39;;;;;;;7.45;1.67;;;;;;;9.68;100.00;100639.53;6275996;28;20064;-73
2023/12/28 07:25:41;;;;;;;4.75;1.13;;;;;;;9.62;100.00;100635.41;6306053;28;20334;-73
2023/12/28 07:28:44;;;;;;;2.15;1.23;;;;;;;9.64;100.00;100633.56;6301004;28;20054;-72
2023/12/28 07:31:46;;;;;;;10.63;1.63;;;;;;;9.63;100.00;100645.84;6300332;28;20071;-72
2023/12/28 07:34:47;;;;;;;6.80;1.17;;;;;;;9.69;100.00;100646.47;6299804;28;20040;-72
2023/12/28 07:37:49;;;;;;;6.28;1.65;;;;;;;9.73;100.00;100635.72;6296660;28;20048;-73
2023/12/28 07:40:51;;;;;;;2.67;1.30;;;;;;;9.75;100.00;100664.50;6297509;28;20045;-73
2023/12/28 07:43:54;;;;;;;5.95;2.65;;;;;;;9.92;100.00;100680.22;6306446;28;20105;-72
2023/12/28 07:46:55;;;;;;;12.10;2.50;;;;;;;9.88;100.00;100668.19;6314743;28;20037;-72
2023/12/28 07:49:57;;;;;;;6.75;1.80;;;;;;;9.83;100.00;100672.84;6325707;28;20048;-72
2023/12/28 07:52:58;;;;;;;4.10;1.42;;;;;;;9.85;100.00;100670.97;6325434;28;20562;-71
2023/12/28 07:56:00;;;;;;;2.45;1.00;;;;;;;9.82;100.00;100686.91;6325091;28;20353;-72
2023/12/28 07:59:03;;;;;;;6.13;1.17;;;;;;;9.84;100.00;100677.16;6321851;28;20066;-72
2023/12/28 08:02:05;;;;;;;2.22;1.17;;;;;;;9.80;100.00;100693.97;6300456;28;20063;-72
2023/12/28 08:05:07;;;;;;;5.50;1.48;;;;;;;9.80;100.00;100679.06;6299753;28;20044;-72
2023/12/28 08:08:08;;;;;;;4.65;1.23;;;;;;;9.85;100.00;100684.94;6300229;28;20060;-72
2023/12/28 08:11:09;;;;;;;3.15;1.10;;;;;;;9.82;100.00;100705.25;6300248;28;20347;-72
2023/12/28 08:14:12;;;;;;;5.75;0.90;;;;;;;9.89;100.00;100689.09;6293750;28;20045;-73
2023/12/28 08:17:13;;;;;;;3.53;1.25;;;;;;;9.90;100.00;100696.06;6306417;28;20040;-73
2023/12/28 08:20:15;;;;;;;4.35;1.05;;;;;;;9.99;100.00;100691.25;6297248;28;20051;-73
2023/12/28 08:23:16;;;;;;;6.00;1.33;;;;;;;9.96;100.00;100707.19;6297134;28;20349;-73
2023/12/28 08:26:18;;;;;;;4.65;1.20;;;;;;;9.94;100.00;100681.00;6296806;28;20051;-74
2023/12/28 08:29:21;;;;;;;3.03;0.90;;;;;;;9.82;100.00;100679.88;6302556;28;20052;-73
2023/12/28 08:32:22;;;;;;;3.17;1.13;;;;;;;9.83;100.00;100688.59;6316264;28;20051;-73
2023/12/28 08:35:23;;;;;;;4.47;1.38;;;;;;;9.87;100.00;100695.38;6301496;28;20351;-73
2023/12/28 08:38:25;;;;;;;6.20;1.20;;;;;;;9.86;100.00;100691.06;6298401;28;20431;-72
2023/12/28 08:41:27;;;;;;;4.72;1.17;;;;;;;9.88;100.00;100695.28;6304258;28;20041;-73
2023/12/28 08:44:30;;;;;;;2.80;1.33;;;;;;;9.90;100.00;100682.06;6299428;28;20045;-71
2023/12/28 08:47:31;;;;;;;7.95;1.33;;;;;;;9.91;100.00;100681.16;6306984;28;20049;-70
2023/12/28 08:50:32;;;;;;;6.32;1.50;;;;;;;9.95;100.00;100677.47;6307127;28;20055;-70
2023/12/28 08:53:34;;;;;;;5.28;1.33;;;;;;;9.92;100.00;100664.50;6329555;28;20052;-70
2023/12/28 08:56:35;;;;;;;3.78;1.15;;;;;;;9.94;100.00;100677.53;6329283;28;20048;-71
2023/12/28 08:59:38;;;;;;;9.00;1.20;;;;;;;10.02;100.00;100678.81;6317358;28;20047;-71
2023/12/28 09:02:39;;;;;;;3.22;1.10;;;;;;;10.00;100.00;100664.94;6308989;28;20052;-71
2023/12/28 09:05:41;;;;;;;2.75;0.98;;;;;;;9.98;100.00;100666.78;6317488;28;20047;-70
2023/12/28 09:08:43;;;;;;;1.85;1.05;;;;;;;9.98;100.00;100668.56;6306076;28;20880;-73
2023/12/28 09:11:45;;;;;;;2.38;1.25;;;;;;;9.99;100.00;100681.63;6299778;28;20040;-72
2023/12/28 09:14:52;;;;;;;3.38;1.02;;;;;;;9.91;100.00;100678.53;6302580;28;20349;-72
2023/12/28 09:17:53;;;;;;;4.07;1.00;;;;;;;9.99;100.00;100684.25;6311210;28;20134;-70
2023/12/28 09:20:55;;;;;;;7.05;1.42;;;;;;;10.07;100.00;100683.84;6315973;28;20059;-70
2023/12/28 09:23:56;;;;;;;5.47;1.10;;;;;;;10.03;100.00;100698.88;6298197;28;20122;-71
2023/12/28 09:26:57;;;;;;;3.47;1.00;;;;;;;10.02;100.00;100689.31;6294945;28;20348;-70
2023/12/28 09:30:00;;;;;;;4.30;1.17;;;;;;;10.06;100.00;100706.63;6303723;28;20047;-71
2023/12/28 09:33:01;;;;;;;4.72;1.08;;;;;;;10.12;100.00;100693.16;6294252;28;20052;-71
2023/12/28 09:36:04;;;;;;;8.27;1.00;;;;;;;10.14;100.00;100696.56;6294758;28;20048;-71
2023/12/28 09:39:07;;;;;;;3.90;2.28;;;;;;;10.04;100.00;100684.00;6298397;28;20345;-71
2023/12/28 09:42:17;;;;;;;3.92;1.20;;;;;;;10.08;100.00;100693.41;6303606;28;20068;-70
2023/12/28 09:45:21;;;;;;;7.38;0.90;;;;;;;10.16;100.00;100686.81;6292916;28;20063;-70
2023/12/28 09:48:23;;;;;;;1.30;0.77;;;;;;;10.19;100.00;100690.22;6295737;28;20053;-70
2023/12/28 09:51:25;;;;;;;4.70;0.93;;;;;;;10.08;100.00;100677.66;6297074;28;20053;-70
2023/12/28 09:54:26;;;;;;;7.95;1.17;;;;;;;10.03;100.00;100679.66;6299295;28;20051;-70
2023/12/28 09:57:28;;;;;;;3.05;1.10;;;;;;;10.23;100.00;100670.75;6292651;28;20037;-71
2023/12/28 10:00:31;;;;;;;7.05;1.30;;;;;;;10.13;100.00;100662.53;6301633;28;20472;-71
2023/12/28 10:03:32;;;;;;;4.40;1.30;;;;;;;10.14;100.00;100667.69;6298196;28;20376;-70
2023/12/28 10:06:34;;;;;;;2.90;1.08;;;;;;;10.19;100.00;100671.84;6296661;28;20051;-71
2023/12/28 10:09:35;;;;;;;4.28;1.05;;;;;;;10.32;100.00;100672.94;6302265;28;20067;-72
2023/12/28 10:12:36;;;;;;;4.25;1.00;;;;;;;10.35;100.00;100678.00;6299746;28;20055;-70
2023/12/28 10:15:39;;;;;;;4.35;1.35;;;;;;;10.39;100.00;100667.25;6294875;28;20041;-70
2023/12/28 10:18:42;;;;;;;4.70;1.33;;;;;;;10.40;100.00;100675.97;6297853;28;20044;-69
2023/12/28 10:21:44;;;;;;;3.95;1.13;;;;;;;10.50;100.00;100674.56;6289745;28;20040;-69
2023/12/28 10:24:45;;;;;;;6.50;1.38;;;;;;;10.45;100.00;100686.25;6282866;28;20041;-70
2023/12/28 10:27:50;;;;;;;8.23;1.55;;;;;;;10.49;100.00;100677.25;6293713;28;20044;-70
2023/12/28 10:30:56;;;;;;;6.03;1.58;;;;;;;10.46;100.00;100667.78;6302084;28;20361;-70
2023/12/28 10:33:59;;;;;;;6.45;1.30;;;;;;;10.40;100.00;100682.09;6299681;28;20127;-70
2023/12/28 10:37:01;;;;;;;5.43;1.88;;;;;;;10.38;100.00;100673.44;6297017;28;20406;-70
2023/12/28 10:40:06;;;;;;;7.93;1.40;;;;;;;10.46;100.00;100680.91;6293513;28;20087;-70
2023/12/28 10:43:11;;;;;;;9.38;1.20;;;;;;;10.40;100.00;100689.97;6298373;28;20139;-70
2023/12/28 10:46:22;;;;;;;8.27;1.98;;;;;;;10.40;100.00;100686.47;6300950;28;20592;-69
2023/12/28 10:49:26;;;;;;;9.45;1.73;;;;;;;10.49;100.00;100683.38;6313506;28;20048;-69
2023/12/28 10:52:31;;;;;;;5.53;1.30;;;;;;;10.49;100.00;100675.50;6326842;28;20189;-69
2023/12/28 10:55:44;;;;;;;3.90;1.00;;;;;;;10.49;100.00;100687.75;6302100;28;20048;-70
2023/12/28 10:58:50;;;;;;;4.00;1.33;;;;;;;10.54;100.00;100704.16;6300432;28;20333;-70
2023/12/28 11:01:57;;;;;;;14.35;2.25;;;;;;;10.57;100.00;100696.94;6318834;28;20337;-69
2023/12/28 11:05:01;;;;;;;9.15;1.40;;;;;;;10.57;100.00;100685.56;6307772;28;20336;-71
2023/12/28 11:08:03;;;;;;;8.07;1.40;;;;;;;10.51;100.00;100678.03;6308635;28;20048;-69
2023/12/28 11:11:07;;;;;;;9.00;1.30;;;;;;;10.50;100.00;100687.69;6281743;28;20120;-69
2023/12/28 11:14:09;;;;;;;6.72;2.30;;;;;;;10.53;100.00;100679.63;6317923;28;20040;-71
2023/12/28 11:17:14;;;;;;;2.08;1.20;;;;;;;10.54;100.00;100675.25;6311864;28;20040;-70
2023/12/28 11:20:16;;;;;;;8.73;1.20;;;;;;;10.63;100.00;100672.97;6286528;28;20341;-70
2023/12/28 11:23:18;;;;;;;8.68;1.67;;;;;;;10.61;100.00;100674.81;6296166;28;20357;-70
2023/12/28 11:26:20;;;;;;;5.90;2.13;;;;;;;10.79;100.00;100670.31;6288880;28;21735;-71
2023/12/28 11:29:23;;;;;;;8.38;1.30;;;;;;;10.75;100.00;100681.94;6296117;28;20048;-70
2023/12/28 11:32:27;;;;;;;4.47;1.45;;;;;;;10.70;100.00;100680.50;6299130;28;20045;-71
2023/12/28 11:35:35;;;;;;;6.63;1.90;;;;;;;10.65;100.00;100663.22;6297554;28;20131;-70
2023/12/28 11:38:41;;;;;;;11.20;1.20;;;;;;;10.72;100.00;100665.47;6297523;28;20133;-70
2023/12/28 11:41:43;;;;;;;8.40;1.45;;;;;;;10.79;100.00;100657.19;6299651;28;20037;-70
2023/12/28 11:44:45;;;;;;;2.47;1.25;;;;;;;10.75;100.00;100662.69;6295863;28;20464;-72
2023/12/28 11:47:48;;;;;;;12.75;1.83;;;;;;;10.66;100.00;100664.06;6295159;28;20041;-70
2023/12/28 11:50:49;;;;;;;12.55;1.23;;;;;;;10.61;100.00;100655.56;6299188;28;20041;-70
2023/12/28 11:53:51;;;;;;;5.53;1.27;;;;;;;10.59;100.00;100660.09;6298023;28;20052;-70
2023/12/28 11:56:52;;;;;;;6.30;1.20;;;;;;;10.65;100.00;100649.22;6297844;28;20040;-70
2023/12/28 11:59:56;;;;;;;6.38;1.60;;;;;;;10.60;100.00;100651.25;6296564;28;20037;-70
2023/12/28 12:02:59;;;;;;;3.75;1.35;;;;;;;10.55;100.00;100663.81;6299541;28;20053;-70
2023/12/28 12:06:00;;;;;;;5.25;1.20;;;;;;;10.62;100.00;100647.59;6293243;28;20060;-70
2023/12/28 12:09:02;;;;;;;4.95;1.40;;;;;;;10.60;100.00;100657.34;6293176;28;20045;-70
2023/12/28 12:12:04;;;;;;;2.95;1.20;;;;;;;10.54;100.00;100656.88;6307707;28;20562;-71
2023/12/28 12:15:07;;;;;;;5.13;0.95;;;;;;;10.56;100.00;100649.72;6305538;28;20048;-70
2023/12/28 12:18:10;;;;;;;3.38;1.02;;;;;;;10.57;100.00;100654.88;6315976;28;20066;-69
2023/12/28 12:21:13;;;;;;;5.55;1.25;;;;;;;10.47;100.00;100642.34;6324398;28;20048;-70
2023/12/28 12:24:14;;;;;;;4.68;1.30;;;;;;;10.61;100.00;100663.47;6306228;28;20040;-69
2023/12/28 12:27:16;;;;;;;8.27;1.10;;;;;;;10.55;100.00;100661.19;6314605;28;20047;-69
2023/12/28 12:30:17;;;;;;;5.75;1.80;;;;;;;10.66;100.00;100640.41;6306296;28;20044;-70
2023/12/28 12:33:21;;;;;;;5.72;1.15;;;;;;;10.60;100.00;100651.25;6312630;28;20439;-70
2023/12/28 12:36:22;;;;;;;4.88;1.02;;;;;;;10.56;100.00;100636.59;6299514;28;20044;-72
2023/12/28 12:39:24;;;;;;;7.55;1.60;;;;;;;10.48;100.00;100644.88;6310859;28;20048;-72
2023/12/28 12:42:25;;;;;;;2.88;1.17;;;;;;;10.49;100.00;100625.59;6311010;28;20356;-70
2023/12/28 12:45:27;;;;;;;14.13;1.77;;;;;;;10.62;100.00;100620.47;6315801;28;20048;-72
2023/12/28 12:48:30;;;;;;;8.18;1.20;;;;;;;10.73;100.00;100630.41;6325125;28;20044;-69
2023/12/28 12:51:31;;;;;;;7.93;1.55;;;;;;;10.73;100.00;100627.78;6315488;28;20526;-72
2023/12/28 12:54:32;;;;;;;3.90;1.10;;;;;;;10.63;100.00;100624.81;6324859;28;20051;-72
2023/12/28 12:57:34;;;;;;;5.03;1.38;;;;;;;10.62;100.00;100616.06;6309131;28;20040;-71
2023/12/28 13:00:36;;;;;;;13.65;1.30;;;;;;;10.72;100.00;100632.19;6300572;28;20072;-69
2023/12/28 13:03:39;;;;;;;7.50;1.48;;;;;;;10.80;100.00;100606.31;6311862;28;20182;-77
2023/12/28 13:06:40;;;;;;;7.10;1.48;;;;;;;10.80;100.00;100610.72;6315278;22;20055;-78
2023/12/28 13:09:42;;;;;;;6.25;1.73;;;;;;;10.89;100.00;100607.56;6286471;28;20047;-77
2023/12/28 13:12:43;;;;;;;4.85;1.23;;;;;;;10.78;100.00;100623.94;6301381;28;20052;-78
2023/12/28 13:15:44;;;;;;;9.45;1.40;;;;;;;10.75;100.00;100624.13;6283262;28;20052;-77
2023/12/28 13:18:47;;;;;;;6.72;1.38;;;;;;;10.77;100.00;100611.75;6283837;28;20052;-77
2023/12/28 13:21:48;;;;;;;3.03;0.90;;;;;;;10.77;100.00;100642.44;6300367;28;20052;-76
2023/12/28 13:24:50;;;;;;;9.07;2.10;;;;;;;10.89;100.00;100618.06;6303478;28;20055;-77
2023/12/28 13:27:51;;;;;;;6.35;1.20;;;;;;;10.86;100.00;100634.03;6289803;28;20051;-78
2023/12/28 13:30:55;;;;;;;2.35;0.82;;;;;;;10.70;100.00;100631.41;6316770;28;20040;-76
2023/12/28 13:33:58;;;;;;;5.20;1.20;;;;;;;10.74;100.00;100621.59;6328943;28;20440;-75
2023/12/28 13:37:01;;;;;;;13.80;2.13;;;;;;;10.74;100.00;100629.47;6313276;28;20124;-77
2023/12/28 13:40:03;;;;;;;5.88;1.60;;;;;;;10.76;100.00;100620.53;6296177;28;20137;-75
2023/12/28 13:43:04;;;;;;;4.95;1.85;;;;;;;10.71;100.00;100622.59;6319518;28;20044;-75
2023/12/28 13:46:05;;;;;;;9.18;1.70;;;;;;;10.77;100.00;100630.16;6308719;28;20044;-76
2023/12/28 13:49:08;;;;;;;10.85;1.95;;;;;;;10.77;100.00;100624.91;6278618;28;20049;-75
2023/12/28 13:52:10;;;;;;;10.05;1.65;;;;;;;10.74;100.00;100632.09;6278396;28;20056;-77
2023/12/28 13:55:11;;;;;;;7.10;1.30;;;;;;;10.67;100.00;100642.09;6278009;28;20057;-77
2023/12/28 13:58:12;;;;;;;7.88;1.80;;;;;;;10.71;100.00;100638.34;6312012;28;20373;-77
2023/12/28 14:01:14;;;;;;;8.05;1.60;;;;;;;10.66;100.00;100633.34;6304559;28;20065;-77
2023/12/28 14:04:17;;;;;;;6.80;1.33;;;;;;;10.70;100.00;100638.44;6301589;28;20044;-77